createdAt,value
2019-01-19T00:01:53.744Z,12.07
2019-01-19T00:04:36.947Z,13.53
2019-01-19T00:07:44.922Z,11.23
2019-01-19T00:10:50.751Z,7.93
2019-01-19T00:13:44.508Z,7.40
2019-01-19T00:16:28.482Z,5.50
2019-01-19T00:19:50.816Z,5.97
2019-01-19T00:23:04.257Z,6.57
2019-01-19T00:26:06.222Z,4.33
2019-01-19T00:28:40.523Z,4.87
2019-01-19T00:31:15.903Z,5.60
2019-01-19T00:34:11.015Z,5.70
2019-01-19T00:37:03.540Z,5.63
2019-01-19T00:40:07.308Z,5.90
2019-01-19T00:43:06.545Z,6.30
2019-01-19T00:46:04.868Z,5.77
2019-01-19T00:49:13.892Z,5.37
2019-01-19T00:52:35.086Z,4.90
2019-01-19T00:55:28.213Z,4.10
2019-01-19T00:58:31.111Z,4.77
2019-01-19T01:01:44.768Z,5.03
2019-01-19T01:04:40.628Z,4.97
2019-01-19T01:07:52.995Z,5.53
2019-01-19T01:10:50.613Z,5.80
2019-01-19T01:13:44.202Z,4.10
2019-01-19T01:16:46.724Z,6.17
2019-01-19T01:19:39.241Z,6.77
2019-01-19T01:22:41.749Z,6.63
2019-01-19T01:25:43.206Z,5.17
2019-01-19T01:29:08.240Z,6.53
2019-01-19T01:31:56.119Z,6.80
2019-01-19T01:35:17.512Z,5.17
2019-01-19T01:38:18.458Z,6.10
2019-01-19T01:41:17.558Z,4.80
2019-01-19T01:44:15.959Z,6.77
2019-01-19T01:47:32.174Z,7.57
2019-01-19T01:50:28.910Z,5.53
2019-01-19T01:53:57.005Z,5.13
2019-01-19T01:56:26.291Z,6.23
2019-01-19T01:59:25.581Z,5.30
2019-01-19T02:02:31.734Z,5.73
2019-01-19T02:05:30.346Z,8.17
2019-01-19T02:08:28.173Z,9.63
2019-01-19T02:11:06.924Z,10.93
2019-01-19T02:14:03.889Z,8.03
2019-01-19T02:16:52.946Z,8.97
2019-01-19T02:19:44.997Z,8.40
2019-01-19T02:23:10.612Z,8.13
2019-01-19T02:25:54.195Z,8.70
2019-01-19T02:28:39.781Z,9.03
2019-01-19T02:31:53.554Z,13.47
2019-01-19T02:34:43.957Z,15.30
2019-01-19T02:37:33.661Z,19.03
2019-01-19T02:40:40.740Z,17.77
2019-01-19T02:43:55.196Z,10.13
2019-01-19T02:47:04.170Z,9.17
2019-01-19T02:50:00.238Z,11.27
2019-01-19T02:52:56.050Z,10.03
2019-01-19T02:56:00.015Z,9.90
2019-01-19T02:59:04.593Z,8.00
2019-01-19T03:02:14.356Z,8.33
2019-01-19T03:05:09.095Z,7.50
2019-01-19T03:08:02.590Z,7.47
2019-01-19T03:11:22.238Z,6.23
2019-01-19T03:14:47.138Z,8.80
2019-01-19T03:18:11.193Z,7.20
2019-01-19T03:21:09.761Z,7.50
2019-01-19T03:24:08.263Z,6.30
2019-01-19T03:27:13.227Z,9.50
2019-01-19T03:30:24.994Z,8.43
2019-01-19T03:33:30.821Z,8.70
2019-01-19T03:36:29.381Z,7.43
2019-01-19T03:39:25.636Z,7.07
2019-01-19T03:42:56.808Z,8.03
2019-01-19T03:46:01.296Z,8.27
2019-01-19T03:48:55.469Z,8.07
2019-01-19T03:51:39.470Z,8.20
2019-01-19T03:54:56.368Z,8.60
2019-01-19T03:57:50.696Z,9.60
2019-01-19T04:00:55.415Z,7.53
2019-01-19T04:03:58.015Z,8.60
2019-01-19T04:06:40.125Z,9.37
2019-01-19T04:09:39.305Z,6.73
2019-01-19T04:12:31.847Z,6.83
2019-01-19T04:15:30.664Z,7.90
2019-01-19T04:18:12.624Z,8.67
2019-01-19T04:21:19.504Z,7.30
2019-01-19T04:23:53.878Z,7.23
2019-01-19T04:26:31.188Z,7.60
2019-01-19T04:29:00.441Z,7.43
2019-01-19T04:31:29.685Z,8.80
2019-01-19T04:33:59.354Z,9.57
2019-01-19T04:36:29.466Z,7.07
2019-01-19T04:38:59.065Z,8.80
2019-01-19T04:41:28.277Z,6.17
2019-01-19T04:43:57.476Z,6.67
2019-01-19T04:46:26.661Z,6.80
2019-01-19T04:48:55.907Z,6.23
2019-01-19T04:51:25.328Z,8.27
2019-01-19T04:53:54.492Z,6.07
2019-01-19T04:56:24.597Z,7.63
2019-01-19T04:58:54.001Z,6.20
2019-01-19T05:01:23.307Z,6.27
2019-01-19T05:03:52.614Z,6.20
2019-01-19T05:06:30.051Z,9.20
2019-01-19T05:08:52.806Z,5.77
2019-01-19T05:11:22.014Z,6.90
2019-01-19T05:13:51.271Z,6.57
2019-01-19T05:16:20.877Z,5.90
2019-01-19T05:18:50.036Z,5.03
2019-01-19T05:21:19.629Z,4.70
2019-01-19T05:23:49.065Z,4.53
2019-01-19T05:26:18.274Z,4.20
2019-01-19T05:28:47.448Z,5.27
2019-01-19T05:31:16.739Z,5.23
2019-01-19T05:33:46.282Z,5.40
2019-01-19T05:36:15.466Z,5.50
2019-01-19T05:38:44.703Z,5.73
2019-01-19T05:41:14.317Z,4.50
2019-01-19T05:43:43.526Z,7.90
2019-01-19T05:46:12.719Z,11.50
2019-01-19T05:48:41.946Z,9.23
2019-01-19T05:51:11.742Z,10.80
2019-01-19T05:53:40.960Z,8.87
2019-01-19T05:56:10.201Z,10.43
2019-01-19T05:58:39.385Z,11.00
2019-01-19T06:01:08.954Z,13.00
2019-01-19T06:03:38.135Z,12.83
2019-01-19T06:06:07.717Z,9.83
2019-01-19T06:08:37.238Z,9.33
2019-01-19T06:11:06.417Z,7.87
2019-01-19T06:13:35.605Z,9.73
2019-01-19T06:16:05.193Z,9.00
2019-01-19T06:18:35.621Z,8.93
2019-01-19T06:21:06.678Z,8.20
2019-01-19T06:23:35.962Z,8.13
2019-01-19T06:26:05.150Z,7.33
2019-01-19T06:28:34.609Z,7.03
2019-01-19T06:31:03.797Z,9.10
2019-01-19T06:33:33.229Z,8.70
2019-01-19T06:36:02.405Z,7.87
2019-01-19T06:38:31.601Z,8.43
2019-01-19T06:41:01.070Z,10.50
2019-01-19T06:43:30.357Z,12.87
2019-01-19T06:45:59.580Z,8.77
2019-01-19T06:48:28.844Z,9.90
2019-01-19T06:50:58.012Z,10.60
2019-01-19T06:53:27.265Z,12.03
2019-01-19T06:55:56.582Z,11.53
2019-01-19T06:58:25.846Z,10.33
2019-01-19T07:00:55.012Z,11.37
2019-01-19T07:03:24.530Z,10.67
2019-01-19T07:05:53.701Z,10.43
2019-01-19T07:08:22.885Z,8.90
2019-01-19T07:10:52.037Z,10.50
2019-01-19T07:13:21.221Z,10.83
2019-01-19T07:15:50.477Z,10.20
2019-01-19T07:18:19.673Z,8.63
2019-01-19T07:20:49.165Z,10.10
2019-01-19T07:23:18.628Z,7.93
2019-01-19T07:25:47.798Z,8.37
2019-01-19T07:28:17.321Z,12.00
2019-01-19T07:30:46.530Z,9.80
2019-01-19T07:33:15.720Z,10.60
2019-01-19T07:35:45.220Z,10.80
2019-01-19T07:38:14.749Z,10.93
2019-01-19T07:40:44.025Z,8.10
2019-01-19T07:43:15.268Z,12.30
2019-01-19T07:45:44.484Z,11.27
2019-01-19T07:48:13.965Z,13.00
2019-01-19T07:50:43.212Z,9.20
2019-01-19T07:53:12.526Z,11.83
2019-01-19T07:55:41.825Z,13.03
2019-01-19T07:58:11.014Z,8.70
2019-01-19T08:00:40.445Z,10.10
2019-01-19T08:03:09.942Z,7.80
2019-01-19T08:05:39.455Z,7.53
2019-01-19T08:08:08.957Z,7.70
2019-01-19T08:10:38.140Z,9.20
2019-01-19T08:13:07.766Z,9.80
2019-01-19T08:15:37.293Z,13.63
2019-01-19T08:18:06.537Z,8.60
2019-01-19T08:20:35.857Z,8.57
2019-01-19T08:23:05.120Z,12.60
2019-01-19T08:25:34.577Z,10.37
2019-01-19T08:28:03.808Z,8.93
2019-01-19T08:30:33.034Z,9.23
2019-01-19T08:33:02.418Z,8.50
2019-01-19T08:35:32.012Z,9.20
2019-01-19T08:38:01.168Z,8.47
2019-01-19T08:40:35.424Z,8.87
2019-01-19T08:43:35.855Z,8.03
2019-01-19T08:46:05.142Z,10.33
2019-01-19T08:48:35.643Z,8.63
2019-01-19T08:51:04.941Z,9.93
2019-01-19T08:53:34.106Z,9.03
2019-01-19T08:56:03.384Z,9.23
2019-01-19T08:58:33.274Z,8.93
2019-01-19T09:01:02.737Z,8.53
2019-01-19T09:03:32.193Z,14.90
2019-01-19T09:06:01.726Z,9.93
2019-01-19T09:08:32.023Z,13.13
2019-01-19T09:11:02.323Z,6.67
2019-01-19T09:13:31.665Z,8.80
2019-01-19T09:16:06.741Z,9.10
2019-01-19T09:18:36.071Z,9.33
2019-01-19T09:21:06.186Z,7.17
2019-01-19T09:23:43.728Z,9.03
2019-01-19T09:26:13.024Z,17.77
2019-01-19T09:28:42.398Z,17.10
2019-01-19T09:31:11.593Z,9.80
2019-01-19T09:33:40.937Z,13.73
2019-01-19T09:36:10.770Z,12.30
2019-01-19T09:38:40.088Z,10.70
2019-01-19T09:41:09.592Z,9.33
2019-01-19T09:43:40.045Z,12.33
2019-01-19T09:46:09.467Z,10.00
2019-01-19T09:48:38.728Z,19.80
2019-01-19T09:51:08.074Z,12.97
2019-01-19T09:53:37.722Z,12.73
2019-01-19T09:56:07.097Z,9.53
2019-01-19T09:58:36.935Z,11.60
2019-01-19T10:01:06.436Z,13.70
2019-01-19T10:03:36.641Z,19.53
2019-01-19T10:06:07.571Z,17.30
2019-01-19T10:08:42.849Z,20.93
2019-01-19T10:11:12.740Z,16.23
2019-01-19T10:13:42.324Z,6.80
2019-01-19T10:16:11.885Z,7.27
2019-01-19T10:18:41.185Z,10.57
2019-01-19T10:21:10.489Z,8.47
2019-01-19T10:23:40.121Z,10.90
2019-01-19T10:26:09.306Z,12.23
2019-01-19T10:28:39.565Z,11.57
2019-01-19T10:31:08.957Z,9.70
2019-01-19T10:33:39.415Z,8.33
2019-01-19T10:36:08.746Z,10.53
2019-01-19T10:38:38.648Z,6.43
2019-01-19T10:41:08.954Z,7.83
2019-01-19T10:43:38.751Z,6.23
2019-01-19T10:46:08.194Z,8.03
2019-01-19T10:48:37.470Z,6.13
2019-01-19T10:51:06.827Z,6.47
2019-01-19T10:53:36.173Z,7.43
2019-01-19T10:56:05.655Z,8.33
2019-01-19T10:58:35.266Z,10.97
2019-01-19T11:01:04.849Z,6.83
2019-01-19T11:03:34.128Z,6.57
2019-01-19T11:06:03.644Z,5.97
2019-01-19T11:08:33.211Z,7.47
2019-01-19T11:11:02.566Z,6.00
2019-01-19T11:13:31.976Z,6.53
2019-01-19T11:16:02.956Z,7.03
2019-01-19T11:18:32.337Z,8.53
2019-01-19T11:21:01.544Z,5.57
2019-01-19T11:23:30.887Z,5.30
2019-01-19T11:26:00.222Z,5.20
2019-01-19T11:28:29.486Z,9.53
2019-01-19T11:30:58.990Z,9.97
2019-01-19T11:33:28.182Z,7.37
2019-01-19T11:35:58.000Z,6.97
2019-01-19T11:38:27.546Z,6.60
2019-01-19T11:40:56.805Z,7.70
2019-01-19T11:43:26.197Z,15.03
2019-01-19T11:45:55.430Z,5.37
2019-01-19T11:48:24.817Z,6.63
2019-01-19T11:50:53.977Z,5.10
2019-01-19T11:53:23.296Z,4.73
2019-01-19T11:55:52.859Z,4.43
2019-01-19T11:58:22.445Z,10.10
2019-01-19T12:00:51.737Z,4.07
2019-01-19T12:03:21.225Z,5.40
2019-01-19T12:05:50.502Z,5.47
2019-01-19T12:08:20.007Z,5.70
2019-01-19T12:10:49.405Z,6.70
2019-01-19T12:13:18.676Z,5.87
2019-01-19T12:15:47.949Z,5.77
2019-01-19T12:18:17.404Z,6.53
2019-01-19T12:20:48.764Z,5.33
2019-01-19T12:23:18.196Z,6.50
2019-01-19T12:25:47.405Z,6.17
2019-01-19T12:28:16.649Z,18.03
2019-01-19T12:30:46.005Z,5.27
2019-01-19T12:33:15.297Z,5.17
2019-01-19T12:35:44.541Z,6.30
2019-01-19T12:38:13.822Z,9.20
2019-01-19T12:40:43.028Z,6.80
2019-01-19T12:43:15.209Z,5.33
2019-01-19T12:46:14.410Z,5.27
2019-01-19T12:48:43.738Z,8.33
2019-01-19T12:51:14.218Z,5.40
2019-01-19T12:53:43.549Z,8.53
2019-01-19T12:56:12.785Z,10.57
2019-01-19T12:58:42.010Z,10.03
2019-01-19T13:01:11.205Z,6.57
2019-01-19T13:03:40.966Z,7.60
2019-01-19T13:06:37.344Z,7.07
2019-01-19T13:09:30.786Z,7.57
2019-01-19T13:12:43.917Z,6.23
2019-01-19T13:15:56.101Z,25.43
2019-01-19T13:18:39.997Z,6.57
2019-01-19T13:21:38.204Z,6.23
2019-01-19T13:25:09.861Z,5.90
2019-01-19T13:28:28.697Z,6.30
2019-01-19T13:31:30.777Z,5.67
2019-01-19T13:34:33.679Z,6.57
2019-01-19T13:37:54.514Z,6.17
2019-01-19T13:40:53.213Z,8.67
2019-01-19T13:43:55.749Z,7.10
2019-01-19T13:47:07.954Z,5.80
2019-01-19T13:50:16.881Z,9.13
2019-01-19T13:53:40.722Z,12.53
2019-01-19T13:56:54.566Z,15.80
2019-01-19T13:59:48.214Z,7.00
2019-01-19T14:02:46.808Z,7.20
2019-01-19T14:05:44.772Z,8.67
2019-01-19T14:08:39.727Z,8.30
2019-01-19T14:11:32.380Z,7.47
2019-01-19T14:14:52.582Z,7.87
2019-01-19T14:18:14.421Z,7.80
2019-01-19T14:21:23.440Z,11.17
2019-01-19T14:24:07.826Z,11.90
2019-01-19T14:27:00.952Z,10.17
2019-01-19T14:29:58.697Z,7.07
2019-01-19T14:32:41.966Z,9.17
2019-01-19T14:35:33.009Z,8.07
2019-01-19T14:38:27.889Z,8.77
2019-01-19T14:41:58.874Z,9.13
2019-01-19T14:45:10.505Z,8.10
2019-01-19T14:48:06.792Z,8.43
2019-01-19T14:50:52.316Z,9.67
2019-01-19T14:54:04.070Z,9.80
2019-01-19T14:56:58.554Z,9.43
2019-01-19T15:00:18.147Z,9.13
2019-01-19T15:03:30.366Z,9.80
2019-01-19T15:06:55.629Z,15.53
2019-01-19T15:10:01.593Z,10.97
2019-01-19T15:13:22.586Z,9.73
2019-01-19T15:16:01.434Z,9.17
2019-01-19T15:19:22.169Z,13.00
2019-01-19T15:22:08.252Z,11.30
2019-01-19T15:25:15.744Z,9.70
2019-01-19T15:28:25.785Z,12.63
2019-01-19T15:31:23.622Z,11.10
2019-01-19T15:34:26.607Z,12.97
2019-01-19T15:37:41.237Z,13.83
2019-01-19T15:40:54.928Z,12.90
2019-01-19T15:43:58.944Z,10.67
2019-01-19T15:46:53.325Z,12.60
2019-01-19T15:50:09.414Z,12.30
2019-01-19T15:53:06.424Z,12.20
2019-01-19T15:56:22.652Z,14.77
2019-01-19T15:59:15.329Z,18.97
2019-01-19T16:02:56.046Z,12.90
2019-01-19T16:06:07.670Z,12.83
2019-01-19T16:09:04.317Z,11.43
2019-01-19T16:12:02.442Z,13.17
2019-01-19T16:15:01.149Z,13.60
2019-01-19T16:17:54.677Z,12.40
2019-01-19T16:21:08.300Z,10.97
2019-01-19T16:23:57.381Z,13.53
2019-01-19T16:26:58.824Z,12.53
2019-01-19T16:30:12.138Z,16.87
2019-01-19T16:33:25.737Z,14.83
2019-01-19T16:36:35.262Z,13.80
2019-01-19T16:39:32.055Z,14.63
2019-01-19T16:42:15.778Z,15.00
2019-01-19T16:45:24.561Z,13.37
2019-01-19T16:48:33.014Z,16.90
2019-01-19T16:51:25.503Z,14.90
2019-01-19T16:54:11.499Z,16.70
2019-01-19T16:57:21.150Z,16.37
2019-01-19T17:00:13.430Z,15.00
2019-01-19T17:03:19.749Z,16.70
2019-01-19T17:06:21.039Z,16.10
2019-01-19T17:09:23.667Z,14.87
2019-01-19T17:12:54.922Z,13.03
2019-01-19T17:16:03.080Z,16.93
2019-01-19T17:18:50.280Z,30.23
2019-01-19T17:21:44.879Z,17.13
2019-01-19T17:25:10.061Z,19.00
2019-01-19T17:28:08.377Z,14.03
2019-01-19T17:31:24.389Z,17.20
2019-01-19T17:34:32.545Z,30.60
2019-01-19T17:37:35.356Z,27.13
2019-01-19T17:40:23.220Z,23.90
2019-01-19T17:43:29.573Z,25.70
2019-01-19T17:46:26.718Z,17.20
2019-01-19T17:49:32.281Z,18.77
2019-01-19T17:52:44.321Z,23.17
2019-01-19T17:56:09.725Z,21.27
2019-01-19T17:59:11.553Z,17.53
2019-01-19T18:02:24.823Z,21.70
2019-01-19T18:05:17.221Z,18.80
2019-01-19T18:08:10.856Z,23.27
2019-01-19T18:11:18.050Z,17.53
2019-01-19T18:14:24.168Z,20.67
2019-01-19T18:17:24.126Z,15.83
2019-01-19T18:20:34.957Z,18.40
2019-01-19T18:23:39.829Z,15.93
2019-01-19T18:26:44.573Z,16.47
2019-01-19T18:30:16.194Z,16.33
2019-01-19T18:33:15.207Z,17.57
2019-01-19T18:36:14.771Z,16.57
2019-01-19T18:38:53.022Z,16.73
2019-01-19T18:42:06.514Z,18.83
2019-01-19T18:44:44.711Z,26.33
2019-01-19T18:47:45.982Z,24.70
2019-01-19T18:51:23.229Z,21.87
2019-01-19T18:54:42.340Z,20.80
2019-01-19T18:58:10.851Z,16.83
2019-01-19T19:01:15.629Z,20.07
2019-01-19T19:04:13.571Z,15.80
2019-01-19T19:07:35.605Z,17.87
2019-01-19T19:10:28.733Z,26.17
2019-01-19T19:13:28.887Z,24.07
2019-01-19T19:16:11.234Z,20.17
2019-01-19T19:19:15.057Z,18.13
2019-01-19T19:22:12.701Z,21.13
2019-01-19T19:25:13.524Z,28.70
2019-01-19T19:28:24.073Z,22.43
2019-01-19T19:31:15.979Z,23.07
2019-01-19T19:34:33.948Z,19.83
2019-01-19T19:37:22.474Z,17.63
2019-01-19T19:40:32.609Z,21.70
2019-01-19T19:43:22.353Z,20.67
2019-01-19T19:46:32.538Z,21.77
2019-01-19T19:49:48.946Z,30.67
2019-01-19T19:52:18.114Z,19.83
2019-01-19T19:54:52.456Z,16.73
2019-01-19T19:57:21.704Z,16.73
2019-01-19T19:59:51.225Z,18.97
2019-01-19T20:02:20.484Z,19.63
2019-01-19T20:04:49.893Z,19.57
2019-01-19T20:07:19.181Z,22.77
2019-01-19T20:09:48.394Z,23.73
2019-01-19T20:12:17.905Z,21.47
2019-01-19T20:14:47.480Z,20.63
2019-01-19T20:17:16.753Z,21.10
2019-01-19T20:19:46.646Z,19.47
2019-01-19T20:22:15.894Z,20.70
2019-01-19T20:24:45.213Z,21.77
2019-01-19T20:27:14.497Z,22.47
2019-01-19T20:29:44.210Z,20.67
2019-01-19T20:32:13.397Z,18.60
2019-01-19T20:34:42.593Z,18.50
2019-01-19T20:37:12.129Z,21.90
2019-01-19T20:39:41.449Z,18.90
2019-01-19T20:42:10.873Z,16.27
2019-01-19T20:44:40.481Z,19.50
2019-01-19T20:47:10.555Z,17.30
2019-01-19T20:49:39.859Z,18.90
2019-01-19T20:52:09.045Z,17.27
2019-01-19T20:54:38.573Z,18.27
2019-01-19T20:57:08.229Z,20.03
2019-01-19T20:59:37.615Z,18.93
2019-01-19T21:02:07.083Z,17.27
2019-01-19T21:04:36.393Z,19.13
2019-01-19T21:07:05.747Z,19.60
2019-01-19T21:09:35.073Z,17.73
2019-01-19T21:12:04.765Z,21.70
2019-01-19T21:14:34.208Z,18.70
2019-01-19T21:17:03.802Z,20.60
2019-01-19T21:19:33.333Z,19.53
2019-01-19T21:22:02.794Z,19.77
2019-01-19T21:24:32.336Z,24.77
2019-01-19T21:27:02.129Z,23.53
2019-01-19T21:29:31.330Z,20.47
2019-01-19T21:32:00.690Z,20.97
2019-01-19T21:34:30.021Z,20.37
2019-01-19T21:36:59.764Z,18.80
2019-01-19T21:39:29.137Z,20.07
2019-01-19T21:41:58.610Z,18.33
2019-01-19T21:44:27.937Z,19.37
2019-01-19T21:46:57.614Z,20.27
2019-01-19T21:49:26.853Z,17.60
2019-01-19T21:51:56.511Z,21.40
2019-01-19T21:54:25.867Z,21.10
2019-01-19T21:56:55.263Z,21.80
2019-01-19T21:59:24.826Z,22.47
2019-01-19T22:01:54.181Z,19.63
2019-01-19T22:04:23.667Z,19.17
2019-01-19T22:06:52.978Z,19.77
2019-01-19T22:09:22.314Z,21.20
2019-01-19T22:11:51.509Z,18.20
2019-01-19T22:14:20.789Z,19.37
2019-01-19T22:16:50.067Z,19.07
2019-01-19T22:19:19.316Z,23.70
2019-01-19T22:21:48.961Z,25.57
2019-01-19T22:24:18.147Z,23.43
2019-01-19T22:26:50.690Z,23.57
2019-01-19T22:29:20.077Z,22.07
2019-01-19T22:31:49.335Z,27.97
2019-01-19T22:34:18.613Z,23.87
2019-01-19T22:36:48.101Z,28.57
2019-01-19T22:39:17.308Z,23.37
2019-01-19T22:41:46.506Z,21.73
2019-01-19T22:44:15.858Z,21.53
2019-01-19T22:46:45.150Z,21.17
2019-01-19T22:49:14.444Z,24.33
2019-01-19T22:51:43.646Z,20.30
2019-01-19T22:54:12.999Z,22.03
2019-01-19T22:56:42.252Z,22.73
2019-01-19T22:59:11.900Z,32.37
2019-01-19T23:02:06.757Z,22.63
2019-01-19T23:04:36.290Z,25.10
2019-01-19T23:07:05.869Z,23.60
2019-01-19T23:09:35.191Z,19.83
2019-01-19T23:12:04.470Z,21.07
2019-01-19T23:14:33.936Z,21.00
2019-01-19T23:17:03.398Z,20.90
2019-01-19T23:19:32.584Z,35.77
2019-01-19T23:22:01.794Z,33.93
2019-01-19T23:24:31.133Z,26.30
2019-01-19T23:27:05.122Z,23.33
2019-01-19T23:29:34.486Z,23.83
2019-01-19T23:32:03.985Z,28.83
2019-01-19T23:34:33.230Z,21.43
2019-01-19T23:37:02.506Z,24.47
2019-01-19T23:39:31.825Z,37.57
2019-01-19T23:42:01.207Z,39.70
2019-01-19T23:44:30.697Z,30.93
2019-01-19T23:46:59.968Z,27.03
2019-01-19T23:49:29.228Z,23.30
2019-01-19T23:51:58.755Z,21.10
2019-01-19T23:54:28.008Z,23.80
2019-01-19T23:56:57.182Z,22.93
2019-01-19T23:59:26.982Z,23.70
